Pagrindinis puslapis
METAR-TAF:

METAR-TAF

Oro uostai :

Menchengladbachas, Vokietija

platuma: 51-13-49N, ilguma: 006-30-16E, Aukštis: 38 m

Dabartinis oras

Ataskaita buvo paskelbta 18 minutes, ne 10:20 UTC
Vėjas 5 kt iš Pietryčių, svyruoja nuo Rytų ir Pietų/Pietvakarių
Temperatūra 17°C
Drėgmė 45%
Slėgis 1029 hPa
Matomumas 10 km arba daugiau
nėra debesų žemiau 1500 m ir nėra kamuolinių lietaus debesų

METAR: EDLN 201020Z 14005KT 090V210 CAVOK 17/05 Q1029

Laikas: 12:38 (10:38 UTC)

Prognozė

Ataskaita buvo paskelbta 2 valandos ir 38 minutes, ne 08:00 UTC
Prognozė galioja nuo 20 metu 09 UTC su 20 metu 18 UTC
Vėjas 5 kt iš Rytų/Šiaurės Rytų
Matomumas 10 km arba daugiau
nėra debesų žemiau 1500 m ir nėra kamuolinių lietaus debesų

TAF: EDLN 200800Z 2009/2018 07005KT CAVOK

Orai ataskaitas ir orų prognozės (METAR, TAF).

turimą stotys yra geltonos ir raudonos taškus žemėlapyje.

Perkelti pele per norėdami pamatyti stoties vardą.

Tada spustelėkite, norėdami matyti oro stebėjimo ir prognozės.

Norėdami pakeisti žemėlapį: spustelėkite ant žalios mygtukų su juodo kryžiaus žemyn,; žalią mygtuką su brūkšneliu, jei norite nutolinti; arba žalių rodyklių gretimoms žemėlapius.


METAR-TAF: